sensor_id;sensor_type;location;lat;lon;timestamp;pressure;altitude;pressure_sealevel;temperature;humidity
72061;BME280;59925;52.136;5.420;2024-01-16T00:01:10;101018.47;;;-1.48;100.00
72061;BME280;59925;52.136;5.420;2024-01-16T00:03:38;101010.56;;;-1.48;100.00
72061;BME280;59925;52.136;5.420;2024-01-16T00:06:05;101010.94;;;-1.51;100.00
72061;BME280;59925;52.136;5.420;2024-01-16T00:08:33;101010.66;;;-1.56;100.00
72061;BME280;59925;52.136;5.420;2024-01-16T00:11:01;101014.47;;;-1.59;100.00
72061;BME280;59925;52.136;5.420;2024-01-16T00:13:28;101013.28;;;-1.56;100.00
72061;BME280;59925;52.136;5.420;2024-01-16T00:15:55;101012.28;;;-1.55;100.00
72061;BME280;59925;52.136;5.420;2024-01-16T00:18:23;101020.00;;;-1.53;100.00
72061;BME280;59925;52.136;5.420;2024-01-16T00:20:50;101019.19;;;-1.54;100.00
72061;BME280;59925;52.136;5.420;2024-01-16T00:23:16;101028.06;;;-1.55;100.00
72061;BME280;59925;52.136;5.420;2024-01-16T00:25:43;101035.59;;;-1.52;100.00
72061;BME280;59925;52.136;5.420;2024-01-16T00:28:09;101047.00;;;-1.45;100.00
72061;BME280;59925;52.136;5.420;2024-01-16T00:30:36;101053.78;;;-1.35;100.00
72061;BME280;59925;52.136;5.420;2024-01-16T00:33:02;101046.16;;;-1.30;100.00
72061;BME280;59925;52.136;5.420;2024-01-16T00:35:29;101021.09;;;-1.26;100.00
72061;BME280;59925;52.136;5.420;2024-01-16T00:37:56;101015.13;;;-1.20;100.00
72061;BME280;59925;52.136;5.420;2024-01-16T00:40:22;101004.84;;;-1.15;100.00
72061;BME280;59925;52.136;5.420;2024-01-16T00:42:49;101013.56;;;-1.14;100.00
72061;BME280;59925;52.136;5.420;2024-01-16T00:45:16;101013.09;;;-1.18;100.00
72061;BME280;59925;52.136;5.420;2024-01-16T00:47:43;101014.66;;;-1.24;100.00
72061;BME280;59925;52.136;5.420;2024-01-16T00:50:10;101018.84;;;-1.29;100.00
72061;BME280;59925;52.136;5.420;2024-01-16T00:52:36;101010.88;;;-1.36;100.00
72061;BME280;59925;52.136;5.420;2024-01-16T00:55:03;101022.88;;;-1.33;100.00
72061;BME280;59925;52.136;5.420;2024-01-16T00:57:30;101031.75;;;-1.34;100.00
72061;BME280;59925;52.136;5.420;2024-01-16T00:59:57;101029.50;;;-1.37;100.00
72061;BME280;59925;52.136;5.420;2024-01-16T01:02:23;101032.47;;;-1.41;100.00
72061;BME280;59925;52.136;5.420;2024-01-16T01:04:50;101036.13;;;-1.42;100.00
72061;BME280;59925;52.136;5.420;2024-01-16T01:07:16;101038.31;;;-1.45;100.00
72061;BME280;59925;52.136;5.420;2024-01-16T01:09:43;101037.03;;;-1.49;100.00
72061;BME280;59925;52.136;5.420;2024-01-16T01:12:09;101037.59;;;-1.54;100.00
72061;BME280;59925;52.136;5.420;2024-01-16T01:14:36;101041.03;;;-1.53;100.00
72061;BME280;59925;52.136;5.420;2024-01-16T01:17:03;101043.19;;;-1.57;100.00
72061;BME280;59925;52.136;5.420;2024-01-16T01:19:29;101037.34;;;-1.59;100.00
72061;BME280;59925;52.136;5.420;2024-01-16T01:21:56;101033.88;;;-1.60;100.00
72061;BME280;59925;52.136;5.420;2024-01-16T01:24:22;101044.03;;;-1.57;100.00
72061;BME280;59925;52.136;5.420;2024-01-16T01:26:49;101036.94;;;-1.56;100.00
72061;BME280;59925;52.136;5.420;2024-01-16T01:29:15;101038.94;;;-1.58;100.00
72061;BME280;59925;52.136;5.420;2024-01-16T01:31:47;101032.88;;;-1.59;100.00
72061;BME280;59925;52.136;5.420;2024-01-16T01:34:16;101033.25;;;-1.62;100.00
72061;BME280;59925;52.136;5.420;2024-01-16T01:36:43;101030.81;;;-1.63;100.00
72061;BME280;59925;52.136;5.420;2024-01-16T01:39:10;101032.00;;;-1.66;100.00
72061;BME280;59925;52.136;5.420;2024-01-16T01:41:38;101029.72;;;-1.69;100.00
72061;BME280;59925;52.136;5.420;2024-01-16T01:44:05;101034.44;;;-1.64;100.00
72061;BME280;59925;52.136;5.420;2024-01-16T01:46:33;101039.34;;;-1.61;100.00
72061;BME280;59925;52.136;5.420;2024-01-16T01:49:02;101035.50;;;-1.59;100.00
72061;BME280;59925;52.136;5.420;2024-01-16T01:51:29;101043.69;;;-1.53;100.00
72061;BME280;59925;52.136;5.420;2024-01-16T01:53:56;101045.13;;;-1.51;100.00
72061;BME280;59925;52.136;5.420;2024-01-16T01:56:25;101075.91;;;-1.45;100.00
72061;BME280;59925;52.136;5.420;2024-01-16T01:58:53;101096.88;;;-1.36;100.00
72061;BME280;59925;52.136;5.420;2024-01-16T02:01:21;101089.16;;;-1.23;100.00
72061;BME280;59925;52.136;5.420;2024-01-16T02:03:49;101090.66;;;-1.14;100.00
72061;BME280;59925;52.136;5.420;2024-01-16T02:06:16;101087.91;;;-1.05;100.00
72061;BME280;59925;52.136;5.420;2024-01-16T02:08:44;101087.38;;;-1.01;100.00
72061;BME280;59925;52.136;5.420;2024-01-16T02:11:11;101076.66;;;-0.99;100.00
72061;BME280;59925;52.136;5.420;2024-01-16T02:13:40;101078.28;;;-0.98;100.00
72061;BME280;59925;52.136;5.420;2024-01-16T02:16:21;101071.81;;;-0.96;100.00
72061;BME280;59925;52.136;5.420;2024-01-16T02:18:49;101074.28;;;-0.94;100.00
72061;BME280;59925;52.136;5.420;2024-01-16T02:21:18;101072.25;;;-0.92;100.00
72061;BME280;59925;52.136;5.420;2024-01-16T02:23:46;101066.00;;;-0.91;100.00
72061;BME280;59925;52.136;5.420;2024-01-16T02:26:17;101047.56;;;-0.91;100.00
72061;BME280;59925;52.136;5.420;2024-01-16T02:28:45;101032.97;;;-0.94;100.00
72061;BME280;59925;52.136;5.420;2024-01-16T02:31:11;101041.25;;;-0.97;100.00
72061;BME280;59925;52.136;5.420;2024-01-16T02:33:38;101037.81;;;-0.97;100.00
72061;BME280;59925;52.136;5.420;2024-01-16T02:36:05;101044.28;;;-1.00;100.00
72061;BME280;59925;52.136;5.420;2024-01-16T02:38:32;101049.91;;;-1.03;100.00
72061;BME280;59925;52.136;5.420;2024-01-16T02:40:58;101049.91;;;-1.03;100.00
72061;BME280;59925;52.136;5.420;2024-01-16T02:43:25;101050.69;;;-1.02;100.00
72061;BME280;59925;52.136;5.420;2024-01-16T02:45:52;101052.34;;;-1.01;100.00
72061;BME280;59925;52.136;5.420;2024-01-16T02:48:19;101049.91;;;-1.03;100.00
72061;BME280;59925;52.136;5.420;2024-01-16T02:50:46;101055.16;;;-1.03;100.00
72061;BME280;59925;52.136;5.420;2024-01-16T02:53:13;101056.59;;;-1.00;100.00
72061;BME280;59925;52.136;5.420;2024-01-16T02:55:39;101048.06;;;-1.02;100.00
72061;BME280;59925;52.136;5.420;2024-01-16T02:58:06;101047.91;;;-1.01;100.00
72061;BME280;59925;52.136;5.420;2024-01-16T03:00:32;101050.69;;;-1.02;100.00
72061;BME280;59925;52.136;5.420;2024-01-16T03:02:59;101049.69;;;-1.01;100.00
72061;BME280;59925;52.136;5.420;2024-01-16T03:05:26;101040.81;;;-1.00;100.00
72061;BME280;59925;52.136;5.420;2024-01-16T03:07:53;101040.16;;;-1.02;100.00
72061;BME280;59925;52.136;5.420;2024-01-16T03:10:19;101039.38;;;-1.03;100.00
72061;BME280;59925;52.136;5.420;2024-01-16T03:12:45;101049.34;;;-0.98;100.00
72061;BME280;59925;52.136;5.420;2024-01-16T03:15:12;101051.97;;;-0.98;100.00
72061;BME280;59925;52.136;5.420;2024-01-16T03:17:38;101056.03;;;-0.96;100.00
72061;BME280;59925;52.136;5.420;2024-01-16T03:20:06;101071.66;;;-0.94;100.00
72061;BME280;59925;52.136;5.420;2024-01-16T03:22:33;101073.88;;;-0.91;100.00
72061;BME280;59925;52.136;5.420;2024-01-16T03:25:00;101077.16;;;-0.89;100.00
72061;BME280;59925;52.136;5.420;2024-01-16T03:27:28;101072.31;;;-0.85;100.00
72061;BME280;59925;52.136;5.420;2024-01-16T03:29:55;101074.59;;;-0.82;100.00
72061;BME280;59925;52.136;5.420;2024-01-16T03:32:22;101069.16;;;-0.81;100.00
72061;BME280;59925;52.136;5.420;2024-01-16T03:34:49;101064.50;;;-0.79;100.00
72061;BME280;59925;52.136;5.420;2024-01-16T03:37:15;101052.97;;;-0.78;100.00
72061;BME280;59925;52.136;5.420;2024-01-16T03:39:42;101058.84;;;-0.75;100.00
72061;BME280;59925;52.136;5.420;2024-01-16T03:42:10;101064.13;;;-0.75;100.00
72061;BME280;59925;52.136;5.420;2024-01-16T03:44:39;101068.38;;;-0.74;100.00
72061;BME280;59925;52.136;5.420;2024-01-16T03:47:07;101069.03;;;-0.72;100.00
72061;BME280;59925;52.136;5.420;2024-01-16T03:49:33;101063.75;;;-0.72;100.00
72061;BME280;59925;52.136;5.420;2024-01-16T03:52:00;101060.13;;;-0.71;100.00
72061;BME280;59925;52.136;5.420;2024-01-16T03:54:27;101061.91;;;-0.72;100.00
72061;BME280;59925;52.136;5.420;2024-01-16T03:56:54;101060.13;;;-0.71;100.00
72061;BME280;59925;52.136;5.420;2024-01-16T03:59:22;101057.47;;;-0.71;100.00
72061;BME280;59925;52.136;5.420;2024-01-16T04:01:48;101053.22;;;-0.72;100.00
72061;BME280;59925;52.136;5.420;2024-01-16T04:04:15;101060.50;;;-0.74;100.00
72061;BME280;59925;52.136;5.420;2024-01-16T04:06:42;101063.13;;;-0.74;100.00
72061;BME280;59925;52.136;5.420;2024-01-16T04:09:09;101052.78;;;-0.76;100.00
72061;BME280;59925;52.136;5.420;2024-01-16T04:11:36;101053.97;;;-0.79;100.00
72061;BME280;59925;52.136;5.420;2024-01-16T04:14:02;101043.81;;;-0.82;100.00
72061;BME280;59925;52.136;5.420;2024-01-16T04:16:29;101035.31;;;-0.84;100.00
72061;BME280;59925;52.136;5.420;2024-01-16T04:18:55;101034.88;;;-0.87;100.00
72061;BME280;59925;52.136;5.420;2024-01-16T04:21:22;101025.34;;;-0.88;100.00
72061;BME280;59925;52.136;5.420;2024-01-16T04:23:48;101026.13;;;-0.88;100.00
72061;BME280;59925;52.136;5.420;2024-01-16T04:26:15;101027.97;;;-0.88;100.00
72061;BME280;59925;52.136;5.420;2024-01-16T04:28:41;101031.41;;;-0.88;100.00
72061;BME280;59925;52.136;5.420;2024-01-16T04:31:09;101028.59;;;-0.86;100.00
72061;BME280;59925;52.136;5.420;2024-01-16T04:33:38;101033.03;;;-0.87;100.00
72061;BME280;59925;52.136;5.420;2024-01-16T04:36:06;101032.84;;;-0.85;100.00
72061;BME280;59925;52.136;5.420;2024-01-16T04:38:33;101027.41;;;-0.84;100.00
72061;BME280;59925;52.136;5.420;2024-01-16T04:41:03;101031.03;;;-0.85;100.00
72061;BME280;59925;52.136;5.420;2024-01-16T04:43:30;101034.66;;;-0.86;100.00
72061;BME280;59925;52.136;5.420;2024-01-16T04:45:56;101031.03;;;-0.85;100.00
72061;BME280;59925;52.136;5.420;2024-01-16T04:48:27;101031.66;;;-0.83;100.00
72061;BME280;59925;52.136;5.420;2024-01-16T04:50:53;101035.72;;;-0.80;100.00
72061;BME280;59925;52.136;5.420;2024-01-16T04:53:20;101035.53;;;-0.79;100.00
72061;BME280;59925;52.136;5.420;2024-01-16T04:55:47;101036.78;;;-0.74;100.00
72061;BME280;59925;52.136;5.420;2024-01-16T04:58:13;101034.16;;;-0.74;100.00
72061;BME280;59925;52.136;5.420;2024-01-16T05:00:40;101026.25;;;-0.74;100.00
72061;BME280;59925;52.136;5.420;2024-01-16T05:03:06;101023.47;;;-0.73;100.00
72061;BME280;59925;52.136;5.420;2024-01-16T05:05:33;101024.88;;;-0.70;100.00
72061;BME280;59925;52.136;5.420;2024-01-16T05:08:03;101014.72;;;-0.73;100.00
72061;BME280;59925;52.136;5.420;2024-01-16T05:10:29;101022.81;;;-0.75;100.00
72061;BME280;59925;52.136;5.420;2024-01-16T05:12:57;101011.03;;;-0.79;100.00
72061;BME280;59925;52.136;5.420;2024-01-16T05:15:23;101009.78;;;-0.83;100.00
72061;BME280;59925;52.136;5.420;2024-01-16T05:17:50;101004.50;;;-0.83;100.00
72061;BME280;59925;52.136;5.420;2024-01-16T05:20:16;100998.63;;;-0.85;100.00
72061;BME280;59925;52.136;5.420;2024-01-16T05:22:43;101001.44;;;-0.87;100.00
72061;BME280;59925;52.136;5.420;2024-01-16T05:25:09;100999.66;;;-0.86;100.00
72061;BME280;59925;52.136;5.420;2024-01-16T05:27:36;100985.84;;;-0.88;100.00
72061;BME280;59925;52.136;5.420;2024-01-16T05:30:03;100985.41;;;-0.92;100.00
72061;BME280;59925;52.136;5.420;2024-01-16T05:32:30;100988.44;;;-0.95;100.00
72061;BME280;59925;52.136;5.420;2024-01-16T05:34:56;100978.69;;;-0.95;100.00
72061;BME280;59925;52.136;5.420;2024-01-16T05:37:23;100978.91;;;-0.96;100.00
72061;BME280;59925;52.136;5.420;2024-01-16T05:39:50;100972.81;;;-0.97;100.00
72061;BME280;59925;52.136;5.420;2024-01-16T05:42:16;100977.06;;;-0.96;100.00
72061;BME280;59925;52.136;5.420;2024-01-16T05:44:43;100977.28;;;-0.97;100.00
72061;BME280;59925;52.136;5.420;2024-01-16T05:47:10;100972.19;;;-0.99;100.00
72061;BME280;59925;52.136;5.420;2024-01-16T05:49:36;100968.94;;;-1.01;100.00
72061;BME280;59925;52.136;5.420;2024-01-16T05:52:03;100965.69;;;-1.03;100.00
72061;BME280;59925;52.136;5.420;2024-01-16T05:54:30;100960.59;;;-1.04;100.00
72061;BME280;59925;52.136;5.420;2024-01-16T05:56:56;100971.13;;;-1.04;100.00
72061;BME280;59925;52.136;5.420;2024-01-16T05:59:23;100966.69;;;-1.04;100.00
72061;BME280;59925;52.136;5.420;2024-01-16T06:01:49;100975.78;;;-1.06;100.00
72061;BME280;59925;52.136;5.420;2024-01-16T06:04:16;100975.16;;;-1.09;100.00
72061;BME280;59925;52.136;5.420;2024-01-16T06:06:42;100959.53;;;-1.10;100.00
72061;BME280;59925;52.136;5.420;2024-01-16T06:09:11;100968.06;;;-1.08;100.00
72061;BME280;59925;52.136;5.420;2024-01-16T06:11:40;100965.44;;;-1.08;100.00
72061;BME280;59925;52.136;5.420;2024-01-16T06:14:09;100973.75;;;-1.04;100.00
72061;BME280;59925;52.136;5.420;2024-01-16T06:16:38;100965.06;;;-1.05;100.00
72061;BME280;59925;52.136;5.420;2024-01-16T06:19:05;100976.22;;;-1.03;100.00
72061;BME280;59925;52.136;5.420;2024-01-16T06:21:31;100968.69;;;-1.06;100.00
72061;BME280;59925;52.136;5.420;2024-01-16T06:23:58;100976.22;;;-1.03;100.00
72061;BME280;59925;52.136;5.420;2024-01-16T06:26:25;100972.75;;;-1.03;100.00
72061;BME280;59925;52.136;5.420;2024-01-16T06:28:51;100977.28;;;-0.97;100.00
72061;BME280;59925;52.136;5.420;2024-01-16T06:31:18;100980.97;;;-0.91;100.00
72061;BME280;59925;52.136;5.420;2024-01-16T06:33:44;100986.28;;;-0.85;100.00
72061;BME280;59925;52.136;5.420;2024-01-16T06:36:11;100991.81;;;-0.80;100.00
72061;BME280;59925;52.136;5.420;2024-01-16T06:38:39;100990.22;;;-0.74;100.00
72061;BME280;59925;52.136;5.420;2024-01-16T06:41:06;100997.13;;;-0.73;100.00
72061;BME280;59925;52.136;5.420;2024-01-16T06:43:33;100994.28;;;-0.71;100.00
72061;BME280;59925;52.136;5.420;2024-01-16T06:45:59;100992.47;;;-0.71;100.00
72061;BME280;59925;52.136;5.420;2024-01-16T06:48:26;100983.38;;;-0.68;100.00
72061;BME280;59925;52.136;5.420;2024-01-16T06:50:52;100976.91;;;-0.66;100.00
72061;BME280;59925;52.136;5.420;2024-01-16T06:53:19;100979.56;;;-0.66;100.00
72061;BME280;59925;52.136;5.420;2024-01-16T06:55:46;100981.38;;;-0.66;100.00
72061;BME280;59925;52.136;5.420;2024-01-16T06:58:12;100990.09;;;-0.66;100.00
72061;BME280;59925;52.136;5.420;2024-01-16T07:00:39;100984.00;;;-0.66;100.00
72061;BME280;59925;52.136;5.420;2024-01-16T07:03:07;100971.66;;;-0.66;100.00
72061;BME280;59925;52.136;5.420;2024-01-16T07:05:34;100977.72;;;-0.65;100.00
72061;BME280;59925;52.136;5.420;2024-01-16T07:08:01;100982.97;;;-0.65;100.00
72061;BME280;59925;52.136;5.420;2024-01-16T07:10:27;100982.19;;;-0.66;100.00
72061;BME280;59925;52.136;5.420;2024-01-16T07:12:54;100990.09;;;-0.66;100.00
72061;BME280;59925;52.136;5.420;2024-01-16T07:15:21;100988.44;;;-0.67;100.00
72061;BME280;59925;52.136;5.420;2024-01-16T07:17:48;100987.66;;;-0.67;100.00
72061;BME280;59925;52.136;5.420;2024-01-16T07:20:14;100987.66;;;-0.67;100.00
72061;BME280;59925;52.136;5.420;2024-01-16T07:22:41;100992.09;;;-0.68;100.00
72061;BME280;59925;52.136;5.420;2024-01-16T07:25:07;100998.19;;;-0.67;100.00
72061;BME280;59925;52.136;5.420;2024-01-16T07:27:34;100994.53;;;-0.66;100.00
72061;BME280;59925;52.136;5.420;2024-01-16T07:30:04;100996.16;;;-0.65;100.00
72061;BME280;59925;52.136;5.420;2024-01-16T07:32:30;101002.44;;;-0.66;100.00
72061;BME280;59925;52.136;5.420;2024-01-16T07:34:58;100999.19;;;-0.68;100.00
72061;BME280;59925;52.136;5.420;2024-01-16T07:37:25;100995.72;;;-0.69;100.00
72061;BME280;59925;52.136;5.420;2024-01-16T07:39:51;100999.56;;;-0.71;100.00
72061;BME280;59925;52.136;5.420;2024-01-16T07:42:18;101001.34;;;-0.72;100.00
72061;BME280;59925;52.136;5.420;2024-01-16T07:44:44;101007.66;;;-0.73;100.00
72061;BME280;59925;52.136;5.420;2024-01-16T07:47:11;101013.72;;;-0.72;100.00
72061;BME280;59925;52.136;5.420;2024-01-16T07:49:38;101014.72;;;-0.73;100.00
72061;BME280;59925;52.136;5.420;2024-01-16T07:52:05;101010.09;;;-0.71;100.00
72061;BME280;59925;52.136;5.420;2024-01-16T07:54:31;101007.47;;;-0.71;100.00
72061;BME280;59925;52.136;5.420;2024-01-16T07:56:58;101004.63;;;-0.70;100.00
72061;BME280;59925;52.136;5.420;2024-01-16T07:59:26;101009.88;;;-0.70;100.00
72061;BME280;59925;52.136;5.420;2024-01-16T08:01:53;101002.81;;;-0.69;100.00
72061;BME280;59925;52.136;5.420;2024-01-16T08:04:20;101008.88;;;-0.69;100.00
72061;BME280;59925;52.136;5.420;2024-01-16T08:06:46;101010.34;;;-0.66;100.00
72061;BME280;59925;52.136;5.420;2024-01-16T08:09:13;101006.69;;;-0.65;100.00
72061;BME280;59925;52.136;5.420;2024-01-16T08:11:40;101012.56;;;-0.63;100.00
72061;BME280;59925;52.136;5.420;2024-01-16T08:14:07;101010.56;;;-0.61;100.00
72061;BME280;59925;52.136;5.420;2024-01-16T08:16:33;101013.22;;;-0.61;100.00
72061;BME280;59925;52.136;5.420;2024-01-16T08:19:00;101016.25;;;-0.57;100.00
72061;BME280;59925;52.136;5.420;2024-01-16T08:21:26;101005.56;;;-0.56;100.00
72061;BME280;59925;52.136;5.420;2024-01-16T08:23:53;101012.06;;;-0.52;100.00
72061;BME280;59925;52.136;5.420;2024-01-16T08:26:19;101001.72;;;-0.53;100.00
72061;BME280;59925;52.136;5.420;2024-01-16T08:28:46;101006.19;;;-0.54;100.00
72061;BME280;59925;52.136;5.420;2024-01-16T08:31:16;101002.72;;;-0.54;100.00
72061;BME280;59925;52.136;5.420;2024-01-16T08:33:44;101009.41;;;-0.52;100.00
72061;BME280;59925;52.136;5.420;2024-01-16T08:36:14;101001.50;;;-0.52;100.00
72061;BME280;59925;52.136;5.420;2024-01-16T08:38:41;101002.34;;;-0.51;100.00
72061;BME280;59925;52.136;5.420;2024-01-16T08:41:08;101003.16;;;-0.51;100.00
72061;BME280;59925;52.136;5.420;2024-01-16T08:43:35;101007.25;;;-0.48;100.00
72061;BME280;59925;52.136;5.420;2024-01-16T08:46:02;101000.91;;;-0.54;100.00
72061;BME280;59925;52.136;5.420;2024-01-16T08:48:28;101013.47;;;-0.56;100.00
72061;BME280;59925;52.136;5.420;2024-01-16T08:50:55;101004.72;;;-0.56;100.00
72061;BME280;59925;52.136;5.420;2024-01-16T08:53:22;100996.66;;;-0.55;100.00
72061;BME280;59925;52.136;5.420;2024-01-16T08:55:50;101008.19;;;-0.56;100.00
72061;BME280;59925;52.136;5.420;2024-01-16T08:58:16;101009.81;;;-0.55;100.00
72061;BME280;59925;52.136;5.420;2024-01-16T09:00:43;101000.72;;;-0.52;100.00
72061;BME280;59925;52.136;5.420;2024-01-16T09:03:11;101003.59;;;-0.47;100.00
72061;BME280;59925;52.136;5.420;2024-01-16T09:05:38;101004.03;;;-0.43;100.00
72061;BME280;59925;52.136;5.420;2024-01-16T09:08:06;101008.09;;;-0.41;100.00
72061;BME280;59925;52.136;5.420;2024-01-16T09:10:37;101006.06;;;-0.39;100.00
72061;BME280;59925;52.136;5.420;2024-01-16T09:13:03;101006.72;;;-0.37;100.00
72061;BME280;59925;52.136;5.420;2024-01-16T09:15:30;101008.34;;;-0.36;100.00
72061;BME280;59925;52.136;5.420;2024-01-16T09:17:56;101006.75;;;-0.30;100.00
72061;BME280;59925;52.136;5.420;2024-01-16T09:20:23;101011.41;;;-0.32;100.00
72061;BME280;59925;52.136;5.420;2024-01-16T09:22:50;101013.03;;;-0.31;100.00
72061;BME280;59925;52.136;5.420;2024-01-16T09:25:16;101007.94;;;-0.33;100.00
72061;BME280;59925;52.136;5.420;2024-01-16T09:27:43;101005.16;;;-0.24;100.00
72061;BME280;59925;52.136;5.420;2024-01-16T09:30:10;101002.31;;;-0.23;100.00
72061;BME280;59925;52.136;5.420;2024-01-16T09:32:39;101004.19;;;-0.17;100.00
72061;BME280;59925;52.136;5.420;2024-01-16T09:35:05;101009.09;;;-0.13;100.00
72061;BME280;59925;52.136;5.420;2024-01-16T09:37:35;101014.19;;;-0.05;100.00
72061;BME280;59925;52.136;5.420;2024-01-16T09:40:02;101010.38;;;0.04;100.00
72061;BME280;59925;52.136;5.420;2024-01-16T09:42:31;101013.66;;;0.06;100.00
72061;BME280;59925;52.136;5.420;2024-01-16T09:45:00;101003.91;;;0.07;100.00
72061;BME280;59925;52.136;5.420;2024-01-16T09:47:27;101011.22;;;0.05;100.00
72061;BME280;59925;52.136;5.420;2024-01-16T09:49:57;100999.84;;;0.04;100.00
72061;BME280;59925;52.136;5.420;2024-01-16T09:52:23;100989.78;;;0.21;100.00
72061;BME280;59925;52.136;5.420;2024-01-16T09:54:50;100990.41;;;0.30;100.00
72061;BME280;59925;52.136;5.420;2024-01-16T09:57:19;100994.28;;;0.34;100.00
72061;BME280;59925;52.136;5.420;2024-01-16T09:59:49;100995.31;;;0.40;100.00
72061;BME280;59925;52.136;5.420;2024-01-16T10:02:16;100990.66;;;0.35;100.00
72061;BME280;59925;52.136;5.420;2024-01-16T10:04:43;100989.78;;;0.28;100.00
72061;BME280;59925;52.136;5.420;2024-01-16T10:07:12;100994.09;;;0.36;100.00
72061;BME280;59925;52.136;5.420;2024-01-16T10:09:38;100991.09;;;0.52;100.00
72061;BME280;59925;52.136;5.420;2024-01-16T10:12:06;100996.22;;;0.74;100.00
72061;BME280;59925;52.136;5.420;2024-01-16T10:14:36;100978.19;;;0.84;100.00
72061;BME280;59925;52.136;5.420;2024-01-16T10:17:05;100970.88;;;0.86;100.00
72061;BME280;59925;52.136;5.420;2024-01-16T10:19:32;100972.31;;;0.89;100.00
72061;BME280;59925;52.136;5.420;2024-01-16T10:22:19;100976.56;;;0.83;100.00
72061;BME280;59925;52.136;5.420;2024-01-16T10:25:04;100968.25;;;1.00;100.00
72061;BME280;59925;52.136;5.420;2024-01-16T10:27:31;100981.88;;;1.30;100.00
72061;BME280;59925;52.136;5.420;2024-01-16T10:29:58;100968.66;;;1.44;100.00
72061;BME280;59925;52.136;5.420;2024-01-16T10:32:29;100971.50;;;1.42;100.00
72061;BME280;59925;52.136;5.420;2024-01-16T10:35:11;100968.19;;;1.74;100.00
72061;BME280;59925;52.136;5.420;2024-01-16T10:37:52;100967.56;;;1.85;100.00
72061;BME280;59925;52.136;5.420;2024-01-16T10:40:21;100963.22;;;2.11;100.00
72061;BME280;59925;52.136;5.420;2024-01-16T10:42:59;100961.38;;;2.11;100.00
72061;BME280;59925;52.136;5.420;2024-01-16T10:45:26;100963.72;;;2.26;100.00
72061;BME280;59925;52.136;5.420;2024-01-16T10:48:07;100969.94;;;2.00;100.00
72061;BME280;59925;52.136;5.420;2024-01-16T10:50:36;100975.59;;;2.10;100.00
72061;BME280;59925;52.136;5.420;2024-01-16T10:53:06;100970.91;;;2.19;100.00
72061;BME280;59925;52.136;5.420;2024-01-16T10:55:45;100971.53;;;2.14;100.00
72061;BME280;59925;52.136;5.420;2024-01-16T10:58:16;100967.44;;;2.12;100.00
72061;BME280;59925;52.136;5.420;2024-01-16T11:00:46;100964.19;;;2.17;100.00
72061;BME280;59925;52.136;5.420;2024-01-16T11:03:20;100962.41;;;2.04;100.00
72061;BME280;59925;52.136;5.420;2024-01-16T11:05:51;100964.25;;;2.03;100.00
72061;BME280;59925;52.136;5.420;2024-01-16T11:08:19;100955.31;;;2.04;100.00
72061;BME280;59925;52.136;5.420;2024-01-16T11:10:47;100959.16;;;2.02;100.00
72061;BME280;59925;52.136;5.420;2024-01-16T11:13:16;100956.09;;;2.05;100.00
72061;BME280;59925;52.136;5.420;2024-01-16T11:15:45;100957.75;;;1.99;100.00
72061;BME280;59925;52.136;5.420;2024-01-16T11:18:15;100934.97;;;1.98;100.00
72061;BME280;59925;52.136;5.420;2024-01-16T11:20:43;100930.66;;;2.04;100.00
72061;BME280;59925;52.136;5.420;2024-01-16T11:23:14;100934.69;;;2.13;100.00
72061;BME280;59925;52.136;5.420;2024-01-16T11:25:41;100931.59;;;2.23;100.00
72061;BME280;59925;52.136;5.420;2024-01-16T11:28:09;100930.44;;;2.51;100.00
72061;BME280;59925;52.136;5.420;2024-01-16T11:30:40;100922.22;;;2.91;100.00
72061;BME280;59925;52.136;5.420;2024-01-16T11:36:00;100911.06;;;2.82;100.00
72061;BME280;59925;52.136;5.420;2024-01-16T11:38:29;100907.19;;;2.85;100.00
72061;BME280;59925;52.136;5.420;2024-01-16T11:40:58;100905.56;;;3.09;100.00
72061;BME280;59925;52.136;5.420;2024-01-16T11:43:36;100905.31;;;3.36;100.00
72061;BME280;59925;52.136;5.420;2024-01-16T11:46:07;100911.22;;;3.57;100.00
72061;BME280;59925;52.136;5.420;2024-01-16T11:48:35;100902.53;;;3.68;100.00
72061;BME280;59925;52.136;5.420;2024-01-16T11:51:23;100905.69;;;3.77;100.00
72061;BME280;59925;52.136;5.420;2024-01-16T11:53:50;100907.97;;;3.92;100.00
72061;BME280;59925;52.136;5.420;2024-01-16T11:56:41;100905.78;;;3.70;100.00
72061;BME280;59925;52.136;5.420;2024-01-16T12:02:14;100898.22;;;4.04;100.00
72061;BME280;59925;52.136;5.420;2024-01-16T12:04:42;100894.97;;;4.02;97.57
72061;BME280;59925;52.136;5.420;2024-01-16T12:07:09;100893.50;;;4.06;98.22
72061;BME280;59925;52.136;5.420;2024-01-16T12:09:37;100893.13;;;4.33;99.29
72061;BME280;59925;52.136;5.420;2024-01-16T12:12:05;100897.81;;;4.19;96.72
72061;BME280;59925;52.136;5.420;2024-01-16T12:14:32;100891.97;;;3.98;96.60
72061;BME280;59925;52.136;5.420;2024-01-16T12:17:11;100885.66;;;3.81;94.93
72061;BME280;59925;52.136;5.420;2024-01-16T12:19:39;100883.94;;;3.87;96.55
72061;BME280;59925;52.136;5.420;2024-01-16T12:22:09;100882.03;;;3.75;94.51
72061;BME280;59925;52.136;5.420;2024-01-16T12:24:37;100881.59;;;3.60;94.11
72061;BME280;59925;52.136;5.420;2024-01-16T12:27:05;100875.22;;;3.49;93.66
72061;BME280;59925;52.136;5.420;2024-01-16T12:29:32;100881.31;;;3.49;95.14
72061;BME280;59925;52.136;5.420;2024-01-16T12:32:08;100880.72;;;3.47;95.40
72061;BME280;59925;52.136;5.420;2024-01-16T12:34:44;100884.41;;;3.65;96.08
72061;BME280;59925;52.136;5.420;2024-01-16T12:37:12;100871.53;;;3.50;95.10
72061;BME280;59925;52.136;5.420;2024-01-16T12:39:40;100874.84;;;3.27;94.70
72061;BME280;59925;52.136;5.420;2024-01-16T12:42:09;100876.59;;;3.33;95.43
72061;BME280;59925;52.136;5.420;2024-01-16T12:44:39;100872.63;;;3.24;94.11
72061;BME280;59925;52.136;5.420;2024-01-16T12:47:05;100862.53;;;3.51;95.88
72061;BME280;59925;52.136;5.420;2024-01-16T12:49:32;100864.75;;;4.03;95.46
72061;BME280;59925;52.136;5.420;2024-01-16T12:52:21;100865.13;;;4.07;94.06